Time;durP1;ratioP1;P1;durP2;ratioP2;P2;SDS_P1;SDS_P2;PMS_P1;PMS_P2;Temp;Humidity;BMP_temperature;BMP_pressure;BME280_temperature;BME280_humidity;BME280_pressure;Samples;Min_cycle;Max_cycle;Signal;HPM_P1;HPM_P2
2022/11/09 00:02:09;;;;;;;122.90;69.30;;;;;;;5.28;76.47;101330.48;124069;1101;104181;-74
2022/11/09 00:04:40;;;;;;;118.57;70.20;;;;;;;5.29;76.87;101332.30;124077;1099;104204;-74
2022/11/09 00:07:11;;;;;;;126.93;73.90;;;;;;;5.25;76.60;101343.31;124085;1099;104246;-74
2022/11/09 00:09:42;;;;;;;147.63;82.87;;;;;;;5.22;76.47;101335.29;124126;1099;104214;-74
2022/11/09 00:12:13;;;;;;;140.87;78.70;;;;;;;5.16;76.72;101342.66;124138;1102;104409;-74
2022/11/09 00:14:44;;;;;;;144.10;81.57;;;;;;;5.10;76.42;101342.23;124050;1099;104201;-74
2022/11/09 00:17:15;;;;;;;157.77;84.67;;;;;;;5.04;76.30;101345.28;124111;1100;104310;-74
2022/11/09 00:19:47;;;;;;;143.60;81.90;;;;;;;4.95;76.75;101348.11;124095;1099;104338;-75
2022/11/09 00:22:18;;;;;;;133.77;79.10;;;;;;;4.86;76.46;101356.18;124132;1102;104286;-74
2022/11/09 00:24:49;;;;;;;123.60;71.90;;;;;;;4.72;76.68;101362.08;124072;1099;104184;-74
2022/11/09 00:27:20;;;;;;;111.03;67.20;;;;;;;4.61;76.91;101362.97;124083;1099;104245;-75
2022/11/09 00:29:51;;;;;;;114.30;59.20;;;;;;;4.49;76.93;101361.28;124067;1099;104249;-74
2022/11/09 00:32:23;;;;;;;116.77;59.00;;;;;;;4.35;76.38;101354.17;124105;1099;104224;-74
2022/11/09 00:34:54;;;;;;;109.33;56.03;;;;;;;4.29;77.15;101353.71;124109;1099;104169;-74
2022/11/09 00:37:25;;;;;;;93.37;52.60;;;;;;;4.27;77.13;101352.67;124043;1099;104287;-75
2022/11/09 00:39:56;;;;;;;92.53;53.90;;;;;;;4.29;77.19;101357.20;124064;1097;104198;-75
2022/11/09 00:42:28;;;;;;;91.50;54.27;;;;;;;4.34;76.68;101364.45;124078;1099;104261;-74
2022/11/09 00:44:59;;;;;;;97.20;56.40;;;;;;;4.38;77.28;101362.19;124096;1102;102261;-75
2022/11/09 00:47:30;;;;;;;94.00;54.00;;;;;;;4.46;77.36;101363.66;124035;1102;104237;-74
2022/11/09 00:50:01;;;;;;;97.33;53.77;;;;;;;4.46;76.84;101354.97;124082;1102;104380;-75
2022/11/09 00:52:33;;;;;;;92.07;52.83;;;;;;;4.47;77.53;101357.68;124107;1102;101830;-74
2022/11/09 00:55:04;;;;;;;88.17;50.63;;;;;;;4.47;77.42;101368.08;124076;1099;110705;-75
2022/11/09 00:57:36;;;;;;;93.20;52.53;;;;;;;4.49;76.80;101361.28;124128;1099;104296;-74
2022/11/09 01:00:10;;;;;;;82.20;49.43;;;;;;;4.51;77.24;101353.59;124107;1099;104242;-74
2022/11/09 01:02:41;;;;;;;90.17;49.95;;;;;;;4.54;77.18;101356.42;124061;1099;104254;-74
2022/11/09 01:05:12;;;;;;;75.57;46.73;;;;;;;4.53;76.89;101358.91;124061;1100;104185;-74
2022/11/09 01:07:43;;;;;;;80.43;46.73;;;;;;;4.51;77.02;101361.39;124072;1098;102165;-74
2022/11/09 01:10:15;;;;;;;77.53;45.37;;;;;;;4.50;77.30;101354.38;124100;1099;104341;-75
2022/11/09 01:12:46;;;;;;;72.30;44.20;;;;;;;4.50;77.39;101349.18;124085;1102;104297;-74
2022/11/09 01:15:19;;;;;;;74.80;44.03;;;;;;;4.48;77.33;101346.47;124068;1102;104322;-74
2022/11/09 01:17:50;;;;;;;94.37;54.23;;;;;;;4.49;77.35;101347.39;124085;1099;104217;-75
2022/11/09 01:20:21;;;;;;;83.77;49.80;;;;;;;4.48;77.35;101345.58;124111;1102;104275;-74
2022/11/09 01:22:52;;;;;;;93.07;52.07;;;;;;;4.48;77.44;101336.08;124136;1099;104217;-74
2022/11/09 01:25:24;;;;;;;89.43;51.33;;;;;;;4.47;77.32;101339.48;124077;1099;104437;-75
2022/11/09 01:27:55;;;;;;;94.35;55.30;;;;;;;4.47;77.44;101335.96;124097;1099;104283;-75
2022/11/09 01:30:26;;;;;;;101.63;54.87;;;;;;;4.46;77.44;101341.97;124101;1099;102892;-74
2022/11/09 01:32:58;;;;;;;92.70;55.27;;;;;;;4.41;77.09;101340.70;124098;1099;104684;-75
2022/11/09 01:35:30;;;;;;;90.93;53.50;;;;;;;4.37;77.43;101336.98;124082;1099;104173;-75
2022/11/09 01:38:04;;;;;;;88.23;51.93;;;;;;;4.35;76.98;101341.17;124079;1099;104169;-74
2022/11/09 01:40:39;;;;;;;79.27;47.07;;;;;;;4.34;77.49;101339.36;124010;1099;104063;-75
2022/11/09 01:43:17;;;;;;;76.53;46.13;;;;;;;4.28;76.91;101336.30;124095;1102;104323;-74
2022/11/09 01:45:52;;;;;;;74.00;43.80;;;;;;;4.22;77.37;101339.34;124090;1100;102842;-74
2022/11/09 01:48:33;;;;;;;75.10;44.17;;;;;;;4.21;77.46;101345.34;124095;1100;104313;-74
2022/11/09 01:51:10;;;;;;;74.17;45.30;;;;;;;4.16;77.50;101340.58;124070;1102;103363;-74
2022/11/09 01:53:49;;;;;;;81.37;48.70;;;;;;;4.08;77.06;101338.34;124030;1102;104220;-74
2022/11/09 01:56:21;;;;;;;85.07;47.87;;;;;;;4.04;77.25;101341.48;124074;1101;104182;-74
2022/11/09 01:58:57;;;;;;;82.80;47.10;;;;;;;4.04;77.15;101345.78;124089;1102;103384;-75
2022/11/09 02:01:30;;;;;;;86.30;48.20;;;;;;;4.05;77.12;101343.30;124118;1102;101907;-74
2022/11/09 02:04:07;;;;;;;79.23;47.70;;;;;;;4.04;77.13;101346.67;124109;1102;102344;-74
2022/11/09 02:06:38;;;;;;;79.77;46.97;;;;;;;4.04;77.44;101345.78;124085;1101;108032;-74
2022/11/09 02:09:18;;;;;;;82.27;47.87;;;;;;;4.00;77.11;101346.33;124117;1102;104089;-74
2022/11/09 02:11:49;;;;;;;79.47;46.83;;;;;;;4.00;77.31;101349.81;124079;1102;104350;-75
2022/11/09 02:14:23;;;;;;;81.70;45.50;;;;;;;3.95;77.34;101352.06;124093;1102;104252;-74
2022/11/09 02:16:54;;;;;;;78.55;45.25;;;;;;;3.88;77.18;101351.48;124071;1102;119154;-74
2022/11/09 02:19:25;;;;;;;82.20;47.17;;;;;;;3.81;77.51;101354.42;124119;1099;104291;-75
2022/11/09 02:21:57;;;;;;;83.10;46.63;;;;;;;3.74;77.63;101351.34;124103;1102;104291;-75
2022/11/09 02:24:29;;;;;;;82.07;44.43;;;;;;;3.69;77.27;101356.96;124080;1099;102800;-75
2022/11/09 02:27:01;;;;;;;100.33;45.80;;;;;;;3.60;77.54;101358.08;124088;1099;102049;-75
2022/11/09 02:29:37;;;;;;;85.73;45.30;;;;;;;3.54;77.86;101357.59;124060;1099;104389;-75
2022/11/09 02:32:12;;;;;;;105.53;47.47;;;;;;;3.49;77.40;101358.02;124035;1102;104350;-74
2022/11/09 02:34:44;;;;;;;99.00;45.23;;;;;;;3.50;77.50;101365.02;124051;1099;104203;-74
2022/11/09 02:37:28;;;;;;;96.37;44.87;;;;;;;3.52;77.14;101371.23;124043;1100;104185;-75
2022/11/09 02:40:01;;;;;;;80.00;44.80;;;;;;;3.47;77.46;101370.87;124103;1102;102540;-75
2022/11/09 02:42:33;;;;;;;84.90;46.07;;;;;;;3.42;77.75;101367.02;124081;1099;104173;-74
2022/11/09 02:45:04;;;;;;;78.60;45.97;;;;;;;3.44;77.61;101370.62;124083;1099;104294;-74
2022/11/09 02:47:35;;;;;;;83.40;47.20;;;;;;;3.47;77.86;101363.08;124049;1102;104159;-74
2022/11/09 02:50:07;;;;;;;79.63;45.33;;;;;;;3.48;77.67;101357.12;124056;1101;104172;-75
2022/11/09 02:52:38;;;;;;;78.37;45.10;;;;;;;3.49;77.86;101366.72;124113;1102;104252;-74
2022/11/09 02:55:11;;;;;;;81.90;46.87;;;;;;;3.50;77.68;101352.94;124098;1102;104169;-74
2022/11/09 02:57:42;;;;;;;82.20;45.70;;;;;;;3.54;77.11;101349.81;124026;1102;104599;-75
2022/11/09 03:00:15;;;;;;;78.33;45.57;;;;;;;3.56;77.80;101343.03;124045;1102;104322;-75
2022/11/09 03:02:47;;;;;;;79.77;45.43;;;;;;;3.59;77.75;101342.38;124102;1102;104286;-74
2022/11/09 03:05:18;;;;;;;77.20;45.27;;;;;;;3.59;78.21;101342.38;124088;1102;104785;-74
2022/11/09 03:07:50;;;;;;;77.73;45.43;;;;;;;3.57;77.80;101346.56;124048;1102;104224;-75
2022/11/09 03:10:21;;;;;;;79.83;46.27;;;;;;;3.53;77.47;101347.98;124078;1102;104176;-74
2022/11/09 03:12:54;;;;;;;86.67;48.53;;;;;;;3.54;77.54;101341.13;124089;1102;104237;-75
2022/11/09 03:15:25;;;;;;;85.23;49.00;;;;;;;3.56;77.88;101340.44;124072;1101;104166;-74
2022/11/09 03:17:56;;;;;;;87.13;49.53;;;;;;;3.56;77.69;101340.44;124104;1099;105566;-75
2022/11/09 03:20:28;;;;;;;81.10;49.73;;;;;;;3.58;77.51;101333.70;124079;1102;104221;-75
2022/11/09 03:23:01;;;;;;;86.87;50.63;;;;;;;3.60;77.31;101334.72;124075;1102;104149;-74
2022/11/09 03:25:33;;;;;;;83.00;48.63;;;;;;;3.63;78.21;101338.32;124116;1102;102090;-75
2022/11/09 03:28:06;;;;;;;74.37;44.50;;;;;;;3.60;77.59;101339.91;124033;1102;104329;-74
2022/11/09 03:30:38;;;;;;;76.45;44.93;;;;;;;3.55;77.63;101343.84;124084;1102;103674;-74
2022/11/09 03:33:11;;;;;;;76.00;46.43;;;;;;;3.51;78.01;101341.78;124092;1102;104211;-75
2022/11/09 03:35:43;;;;;;;82.97;47.90;;;;;;;3.53;78.17;101341.91;124100;1102;104268;-74
2022/11/09 03:38:17;;;;;;;77.20;45.57;;;;;;;3.52;77.56;101345.28;124103;1102;104290;-74
2022/11/09 03:40:49;;;;;;;80.17;46.33;;;;;;;3.51;77.32;101346.08;124090;1099;104248;-74
2022/11/09 03:43:21;;;;;;;78.07;47.00;;;;;;;3.49;77.99;101347.63;124074;1102;103979;-74
2022/11/09 03:45:52;;;;;;;84.10;47.17;;;;;;;3.45;77.42;101341.31;124104;1098;102219;-74
2022/11/09 03:48:24;;;;;;;83.47;48.73;;;;;;;3.40;77.57;101355.63;124061;1099;105596;-74
2022/11/09 03:50:55;;;;;;;86.03;49.13;;;;;;;3.34;77.80;101349.95;124092;1102;104221;-75
2022/11/09 03:53:26;;;;;;;98.00;51.83;;;;;;;3.28;77.36;101357.26;124148;1102;104188;-75
2022/11/09 03:56:00;;;;;;;102.50;52.87;;;;;;;3.21;77.49;101353.25;124138;1102;104336;-76
2022/11/09 03:58:31;;;;;;;91.95;51.37;;;;;;;3.17;78.07;101359.90;124061;1099;103105;-75
2022/11/09 04:01:02;;;;;;;95.83;49.93;;;;;;;3.21;78.41;101361.96;124136;1099;104377;-75
2022/11/09 04:03:33;;;;;;;93.20;52.80;;;;;;;3.21;78.43;101366.22;124146;1099;104169;-75
2022/11/09 04:06:05;;;;;;;126.13;52.23;;;;;;;3.19;78.41;101368.69;124200;1098;104277;-76
2022/11/09 04:08:36;;;;;;;103.47;52.10;;;;;;;3.21;78.39;101369.74;124079;1099;102315;-75
2022/11/09 04:11:07;;;;;;;138.50;54.27;;;;;;;3.21;78.45;101366.22;124147;1099;104306;-75
2022/11/09 04:13:38;;;;;;;101.20;53.03;;;;;;;3.24;78.42;101367.39;124006;1102;102933;-75
2022/11/09 04:16:09;;;;;;;140.43;53.47;;;;;;;3.28;78.54;101367.64;124066;1102;104245;-75
2022/11/09 04:18:41;;;;;;;115.17;52.73;;;;;;;3.29;78.37;101362.56;124108;1099;102848;-74
2022/11/09 04:21:12;;;;;;;109.60;52.67;;;;;;;3.34;77.81;101369.02;124118;1099;104242;-74
2022/11/09 04:23:43;;;;;;;130.60;53.07;;;;;;;3.39;78.23;101371.97;124119;1099;103860;-74
2022/11/09 04:26:14;;;;;;;101.30;48.37;;;;;;;3.40;78.34;101371.20;124056;1102;104326;-75
2022/11/09 04:28:45;;;;;;;118.33;49.90;;;;;;;3.40;78.08;101376.38;124129;1099;104185;-74
2022/11/09 04:31:16;;;;;;;115.47;50.00;;;;;;;3.43;78.18;101376.63;124082;1102;104172;-75
2022/11/09 04:33:51;;;;;;;94.53;48.77;;;;;;;3.43;77.88;101371.44;124092;1099;102835;-74
2022/11/09 04:36:22;;;;;;;112.23;49.77;;;;;;;3.44;78.59;101374.92;124119;1099;104248;-74
2022/11/09 04:38:53;;;;;;;111.33;51.10;;;;;;;3.43;78.15;101376.63;124086;1098;102653;-74
2022/11/09 04:41:24;;;;;;;100.70;50.90;;;;;;;3.44;78.21;101378.41;124153;1099;102822;-74
2022/11/09 04:43:55;;;;;;;112.53;51.77;;;;;;;3.47;78.87;101375.16;124098;1099;104316;-75
2022/11/09 04:46:27;;;;;;;98.93;52.53;;;;;;;3.49;78.87;101374.51;124167;1099;104201;-74
2022/11/09 04:48:58;;;;;;;90.43;51.60;;;;;;;3.54;78.33;101378.36;124148;1099;103059;-74
2022/11/09 04:51:29;;;;;;;98.73;55.90;;;;;;;3.58;78.77;101383.02;124117;1102;104265;-74
2022/11/09 04:54:00;;;;;;;110.17;51.93;;;;;;;3.58;78.64;101388.20;124121;1099;104248;-74
2022/11/09 04:56:31;;;;;;;103.43;52.70;;;;;;;3.59;78.25;101387.39;124140;1102;104249;-75
2022/11/09 04:59:02;;;;;;;103.97;53.97;;;;;;;3.63;79.42;101382.44;124180;1099;104245;-74
2022/11/09 05:01:33;;;;;;;104.93;53.43;;;;;;;3.66;79.38;101383.61;124077;1099;104277;-74
2022/11/09 05:04:05;;;;;;;97.37;54.13;;;;;;;3.69;78.54;101381.22;124003;1102;103032;-75
2022/11/09 05:06:36;;;;;;;101.57;55.23;;;;;;;3.71;79.49;101392.65;124097;1102;104201;-74
2022/11/09 05:09:08;;;;;;;98.33;55.70;;;;;;;3.74;78.96;101392.89;124075;1102;104207;-75
2022/11/09 05:11:39;;;;;;;103.83;55.70;;;;;;;3.76;79.09;101391.30;124095;1100;104182;-74
2022/11/09 05:14:10;;;;;;;114.10;58.67;;;;;;;3.80;79.15;101396.73;124120;1102;102200;-75
2022/11/09 05:16:41;;;;;;;122.27;60.37;;;;;;;3.81;78.86;101398.55;124068;1101;104249;-74
2022/11/09 05:19:12;;;;;;;124.55;58.35;;;;;;;3.82;79.12;101408.12;124043;1100;104169;-75
2022/11/09 05:21:44;;;;;;;133.30;63.07;;;;;;;3.78;78.77;101409.59;124080;1099;102869;-74
2022/11/09 05:24:17;;;;;;;136.07;64.80;;;;;;;3.75;78.79;101418.04;124105;1099;104201;-73
2022/11/09 05:26:49;;;;;;;129.50;64.92;;;;;;;3.74;78.92;101413.66;124082;1099;104281;-74
2022/11/09 05:29:20;;;;;;;128.07;62.00;;;;;;;3.72;79.08;101420.39;124083;1099;104093;-74
2022/11/09 05:31:52;;;;;;;122.95;59.05;;;;;;;3.70;79.11;101428.88;124028;1100;104248;-74
2022/11/09 05:34:23;;;;;;;116.20;58.70;;;;;;;3.70;78.67;101429.77;124106;1102;103384;-74
2022/11/09 05:36:54;;;;;;;116.10;56.13;;;;;;;3.72;79.04;101430.78;124119;1101;104169;-74
2022/11/09 05:39:25;;;;;;;119.63;56.07;;;;;;;3.73;79.64;101430.00;124116;1099;104721;-74
2022/11/09 05:41:56;;;;;;;115.77;54.87;;;;;;;3.77;79.18;101437.26;124059;1102;104261;-74
2022/11/09 05:44:27;;;;;;;125.97;54.90;;;;;;;3.80;80.32;101438.27;124129;1099;104208;-73
2022/11/09 05:46:58;;;;;;;106.47;52.93;;;;;;;3.76;79.58;101442.33;124103;1099;104280;-74
2022/11/09 05:49:29;;;;;;;106.77;54.03;;;;;;;3.76;79.47;101443.22;124086;1099;102258;-74
2022/11/09 05:52:01;;;;;;;112.70;53.50;;;;;;;3.84;79.91;101450.72;124110;1101;102373;-75
2022/11/09 05:54:32;;;;;;;108.73;53.53;;;;;;;3.91;79.53;101450.39;124029;1102;104338;-74
2022/11/09 05:57:03;;;;;;;108.90;53.57;;;;;;;3.96;79.96;101455.16;124072;1102;102216;-74
2022/11/09 05:59:36;;;;;;;122.50;55.90;;;;;;;4.03;79.20;101446.14;124115;1099;104271;-75
2022/11/09 06:02:07;;;;;;;108.73;57.10;;;;;;;4.11;79.55;101450.27;124100;1099;104166;-74
2022/11/09 06:04:38;;;;;;;113.03;56.87;;;;;;;4.20;79.99;101454.34;124123;1099;104236;-74
2022/11/09 06:07:09;;;;;;;109.63;56.60;;;;;;;4.24;79.56;101464.16;124106;1099;104192;-74
2022/11/09 06:09:40;;;;;;;106.13;56.83;;;;;;;4.25;80.07;101464.27;124060;1099;104166;-74
2022/11/09 06:12:12;;;;;;;114.90;62.73;;;;;;;4.30;80.14;101456.83;124096;1102;103377;-76
2022/11/09 06:14:43;;;;;;;119.43;60.93;;;;;;;4.39;80.13;101456.64;124374;1099;104354;-75
2022/11/09 06:17:14;;;;;;;119.07;62.50;;;;;;;4.48;80.12;101459.94;124292;1099;102889;-75
2022/11/09 06:19:46;;;;;;;122.40;62.67;;;;;;;4.52;80.25;101464.59;124459;1099;104060;-74
2022/11/09 06:22:17;;;;;;;123.87;64.23;;;;;;;4.50;80.04;101463.55;124208;1099;103913;-74
2022/11/09 06:24:48;;;;;;;112.20;60.23;;;;;;;4.51;79.48;101460.17;124073;1099;102805;-74
2022/11/09 06:27:20;;;;;;;116.37;62.40;;;;;;;4.52;79.93;101467.19;124494;1098;102251;-74
2022/11/09 06:29:52;;;;;;;122.73;61.10;;;;;;;4.58;79.87;101466.72;124637;1099;104303;-74
2022/11/09 06:32:23;;;;;;;107.90;59.47;;;;;;;4.61;80.20;101465.28;124556;1099;104099;-75
2022/11/09 06:34:54;;;;;;;106.97;58.30;;;;;;;4.66;79.99;101463.92;124466;1099;104212;-75
2022/11/09 06:37:25;;;;;;;112.63;60.80;;;;;;;4.76;79.94;101468.10;124135;1099;104303;-76
2022/11/09 06:39:56;;;;;;;105.80;58.35;;;;;;;4.84;79.55;101466.97;124105;1102;102199;-76
2022/11/09 06:42:28;;;;;;;101.40;57.93;;;;;;;4.90;80.44;101469.12;124169;1099;117827;-77
2022/11/09 06:44:59;;;;;;;103.57;57.37;;;;;;;4.93;80.16;101471.95;124103;1102;104163;-75
2022/11/09 06:47:32;;;;;;;102.73;57.07;;;;;;;4.96;80.11;101461.78;124135;1102;104335;-75
2022/11/09 06:50:03;;;;;;;95.80;56.17;;;;;;;5.01;80.12;101464.72;124110;1102;104239;-76
2022/11/09 06:52:37;;;;;;;97.42;54.93;;;;;;;5.04;79.93;101458.03;124156;1103;102362;-76
2022/11/09 06:55:13;;;;;;;106.43;57.63;;;;;;;5.12;79.74;101462.91;124134;1102;104185;-75
2022/11/09 06:57:44;;;;;;;104.77;59.63;;;;;;;5.15;79.96;101461.42;124093;1102;102284;-75
2022/11/09 07:00:19;;;;;;;107.00;59.83;;;;;;;5.18;79.94;101463.35;124155;1100;104175;-75
2022/11/09 07:02:53;;;;;;;105.77;60.93;;;;;;;5.18;80.02;101460.75;124168;1102;110707;-76
2022/11/09 07:05:27;;;;;;;102.00;60.27;;;;;;;5.22;80.36;101468.00;124105;1101;104169;-76
2022/11/09 07:07:58;;;;;;;107.78;64.12;;;;;;;5.29;79.67;101466.73;124113;1102;104195;-75
2022/11/09 07:10:38;;;;;;;115.43;64.20;;;;;;;5.32;80.49;101461.75;124124;1102;104300;-75
2022/11/09 07:13:21;;;;;;;103.07;60.50;;;;;;;5.38;79.93;101460.48;124889;1101;102529;-75
2022/11/09 07:15:55;;;;;;;100.20;58.60;;;;;;;5.49;80.25;101458.66;124856;1103;104200;-76
2022/11/09 07:18:32;;;;;;;99.67;58.28;;;;;;;5.58;80.15;101455.81;124916;1102;104198;-76
2022/11/09 07:21:06;;;;;;;99.77;58.83;;;;;;;5.68;80.03;101449.55;124932;1101;104236;-75
2022/11/09 07:23:45;;;;;;;89.20;54.20;;;;;;;5.75;79.63;101452.69;124191;1102;104334;-76
2022/11/09 07:26:20;;;;;;;98.07;56.17;;;;;;;5.79;79.90;101451.20;124157;1102;104248;-75
2022/11/09 07:28:56;;;;;;;92.63;59.00;;;;;;;5.81;79.63;101456.52;124132;1102;104236;-76
2022/11/09 07:31:30;;;;;;;103.33;59.90;;;;;;;5.83;79.88;101452.30;124211;1102;104165;-76
2022/11/09 07:34:03;;;;;;;100.45;59.48;;;;;;;5.85;79.95;101446.42;124270;1102;104238;-76
2022/11/09 07:36:36;;;;;;;104.20;62.27;;;;;;;5.85;79.53;101449.02;124761;1099;104175;-76
2022/11/09 07:39:10;;;;;;;99.47;58.67;;;;;;;5.91;79.93;101441.63;126035;1098;102322;-76
2022/11/09 07:41:42;;;;;;;106.33;62.67;;;;;;;5.99;79.45;101444.81;124853;1098;102472;-76
2022/11/09 07:44:19;;;;;;;109.13;61.33;;;;;;;6.06;79.44;101447.05;124883;1099;104220;-77
2022/11/09 07:46:59;;;;;;;102.53;63.87;;;;;;;6.15;79.76;101443.27;125601;1098;102373;-76
2022/11/09 07:49:37;;;;;;;108.60;63.20;;;;;;;6.14;79.60;101439.77;125536;1099;101850;-76
2022/11/09 07:52:14;;;;;;;103.00;60.07;;;;;;;6.15;79.54;101448.47;125455;1099;104897;-75
2022/11/09 07:54:50;;;;;;;106.03;62.70;;;;;;;6.18;79.50;101443.47;125516;1099;102251;-75
2022/11/09 07:57:22;;;;;;;106.32;61.45;;;;;;;6.24;79.65;101446.50;125167;1098;102081;-75
2022/11/09 07:59:53;;;;;;;105.87;60.23;;;;;;;6.35;79.53;101442.02;124750;1099;101979;-77
2022/11/09 08:05:36;;;;;;;103.73;60.67;;;;;;;6.58;79.38;101434.03;125475;1099;104181;-76
2022/11/09 08:08:11;;;;;;;103.10;59.67;;;;;;;6.69;79.04;101441.68;125490;1098;104297;-76
2022/11/09 08:10:51;;;;;;;94.93;59.63;;;;;;;6.75;79.50;101437.76;125569;1099;104175;-77
2022/11/09 08:13:27;;;;;;;101.50;61.20;;;;;;;6.76;78.46;101447.41;125498;1099;104248;-76
2022/11/09 08:16:13;;;;;;;103.20;59.63;;;;;;;6.75;78.87;101445.59;125141;1099;104197;-77
2022/11/09 08:18:48;;;;;;;95.55;56.75;;;;;;;6.82;78.67;101452.10;125010;1102;104287;-77
2022/11/09 08:21:20;;;;;;;93.30;55.23;;;;;;;6.85;78.90;101449.69;125516;1099;104256;-77
2022/11/09 08:23:52;;;;;;;90.07;54.67;;;;;;;6.86;78.37;101446.30;124961;1099;103400;-76
2022/11/09 08:26:24;;;;;;;87.33;53.43;;;;;;;6.92;78.12;101448.38;125435;1099;104344;-76
2022/11/09 08:29:00;;;;;;;91.37;53.40;;;;;;;6.99;78.60;101450.60;125466;1099;102797;-76
2022/11/09 08:31:33;;;;;;;90.67;51.40;;;;;;;7.13;78.91;101451.50;125508;1099;104673;-75
2022/11/09 08:34:05;;;;;;;88.07;49.47;;;;;;;7.25;78.37;101447.08;125534;1099;104205;-76
2022/11/09 08:36:42;;;;;;;85.50;48.17;;;;;;;7.30;78.15;101445.65;125543;1099;104230;-75
2022/11/09 08:39:17;;;;;;;84.03;47.00;;;;;;;7.34;78.21;101444.16;125533;1099;102790;-76
2022/11/09 08:41:51;;;;;;;80.00;48.10;;;;;;;7.38;77.99;101448.75;125518;1099;104204;-77
2022/11/09 08:44:22;;;;;;;75.10;45.80;;;;;;;7.48;78.43;101448.55;124890;1099;104181;-76
2022/11/09 08:46:53;;;;;;;78.93;48.60;;;;;;;7.55;77.95;101442.88;125383;1099;104331;-76
2022/11/09 08:49:25;;;;;;;81.10;48.23;;;;;;;7.63;77.49;101435.53;124658;1099;104276;-75
2022/11/09 08:51:56;;;;;;;78.13;46.03;;;;;;;7.70;78.14;101439.45;124705;1099;102589;-76
2022/11/09 08:54:30;;;;;;;79.30;47.37;;;;;;;7.74;77.04;101436.20;124309;1099;104291;-75
2022/11/09 08:57:00;;;;;;;;;;;;;;;7.82;77.17;101432.38;124736;1099;103646;-76
2022/11/09 08:59:33;;;;;;;77.23;47.67;;;;;;;7.95;77.61;101427.87;124601;1099;104251;-75
2022/11/09 09:02:11;;;;;;;77.87;47.20;;;;;;;8.06;77.72;101429.45;124240;1099;104243;-76
2022/11/09 09:04:43;;;;;;;82.83;49.33;;;;;;;8.19;77.32;101428.47;124798;1099;103772;-76
2022/11/09 09:07:19;;;;;;;75.23;47.60;;;;;;;8.34;78.34;101429.39;124662;1099;104230;-75
2022/11/09 09:09:51;;;;;;;74.80;46.33;;;;;;;8.53;78.11;101431.41;124753;1099;102460;-76
2022/11/09 09:12:26;;;;;;;70.17;43.67;;;;;;;8.69;77.69;101424.45;124681;1099;104235;-76
2022/11/09 09:15:03;;;;;;;74.23;45.53;;;;;;;8.85;77.73;101426.23;124676;1099;104249;-75
2022/11/09 09:17:35;;;;;;;71.60;42.80;;;;;;;8.99;77.59;101420.98;124675;1099;104175;-75
2022/11/09 09:20:11;;;;;;;75.03;42.85;;;;;;;9.13;77.73;101420.84;124204;1099;101956;-75
2022/11/09 09:22:42;;;;;;;69.07;41.20;;;;;;;9.24;77.67;101411.89;124657;1099;104351;-75
2022/11/09 09:25:14;;;;;;;71.87;41.80;;;;;;;9.37;77.56;101402.09;124661;1099;104230;-77
2022/11/09 09:27:46;;;;;;;69.27;41.00;;;;;;;9.45;77.10;101401.67;124636;1099;102219;-76
2022/11/09 09:30:18;;;;;;;55.90;35.40;;;;;;;9.53;76.33;101404.72;124728;1099;104258;-76
2022/11/09 09:33:02;;;;;;;58.33;35.17;;;;;;;9.64;77.06;101400.06;124700;1099;104261;-76
2022/11/09 09:35:32;;;;;;;;;;;;;;;9.73;76.49;101395.31;124622;1099;104315;-76
2022/11/09 09:38:08;;;;;;;61.00;34.33;;;;;;;9.84;77.02;101396.77;124257;1099;102232;-77
2022/11/09 09:40:52;;;;;;;62.47;37.67;;;;;;;9.95;76.52;101392.09;125526;1098;104268;-77
2022/11/09 09:43:34;;;;;;;60.70;36.10;;;;;;;10.07;76.96;101391.84;125685;1099;104155;-77
2022/11/09 09:46:12;;;;;;;62.93;35.53;;;;;;;10.19;76.70;101392.48;124726;1099;108559;-77
2022/11/09 09:48:50;;;;;;;63.33;35.33;;;;;;;10.30;77.14;101384.25;124745;1099;102668;-76
2022/11/09 09:51:32;;;;;;;55.90;35.43;;;;;;;10.35;75.69;101383.70;125956;1098;104261;-76
2022/11/09 09:54:12;;;;;;;59.77;37.03;;;;;;;10.39;75.95;101376.88;124687;1099;102850;-77
2022/11/09 09:56:47;;;;;;;65.97;38.07;;;;;;;10.42;75.59;101374.41;124644;1099;104169;-76
2022/11/09 09:59:34;;;;;;;58.47;35.53;;;;;;;10.50;75.52;101375.72;124575;1099;104414;-75
2022/11/09 10:02:21;;;;;;;58.40;35.67;;;;;;;10.57;75.86;101371.66;124976;1099;102930;-75
2022/11/09 10:05:00;;;;;;;63.33;36.53;;;;;;;10.62;75.15;101364.91;125010;1099;104204;-76
2022/11/09 10:07:45;;;;;;;64.57;37.73;;;;;;;10.69;75.25;101360.84;125485;1099;104255;-77
2022/11/09 10:10:43;;;;;;;57.50;35.53;;;;;;;10.76;75.12;101355.97;125016;1099;105569;-76
2022/11/09 10:13:37;;;;;;;56.47;36.70;;;;;;;10.82;74.72;101349.23;124633;1099;102731;-76
2022/11/09 10:16:19;;;;;;;59.33;35.93;;;;;;;10.89;74.91;101340.81;124683;1099;103398;-76
2022/11/09 10:19:40;;;;;;;61.73;37.57;;;;;;;10.98;75.02;101343.88;124772;1099;102028;-75
2022/11/09 10:22:39;;;;;;;56.80;33.53;;;;;;;11.10;75.09;101336.58;125433;1099;104198;-74
2022/11/09 10:25:21;;;;;;;51.03;32.03;;;;;;;11.22;75.15;101332.72;125537;1099;102803;-76
2022/11/09 10:27:58;;;;;;;52.43;31.70;;;;;;;11.30;74.90;101331.36;125526;1098;102096;-75
2022/11/09 10:30:38;;;;;;;50.70;30.83;;;;;;;11.39;75.05;101329.16;125510;1099;104231;-75
2022/11/09 10:33:20;;;;;;;55.67;32.77;;;;;;;11.47;74.60;101337.39;125597;1099;104187;-74
2022/11/09 10:35:58;;;;;;;54.13;30.77;;;;;;;11.51;74.25;101329.72;125439;1099;104281;-75
2022/11/09 10:38:38;;;;;;;54.53;31.80;;;;;;;11.53;74.11;101328.87;124709;1099;102893;-74
2022/11/09 10:41:36;;;;;;;52.57;31.40;;;;;;;11.55;74.05;101324.59;124676;1099;104104;-75
2022/11/09 10:44:28;;;;;;;55.43;31.03;;;;;;;11.58;74.02;101323.00;124664;1099;104179;-77
2022/11/09 10:47:21;;;;;;;51.30;29.85;;;;;;;11.64;74.12;101319.72;126374;1098;111289;-76
2022/11/09 10:50:25;;;;;;;49.80;30.82;;;;;;;11.69;74.05;101315.59;125517;1099;104172;-76
2022/11/09 10:53:26;;;;;;;;;;;;;;;11.72;71.91;101313.09;125079;1098;102755;-77
2022/11/09 10:56:22;;;;;;;49.67;27.57;;;;;;;11.76;73.27;101309.75;125894;1099;102607;-76
2022/11/09 10:59:37;;;;;;;52.27;29.07;;;;;;;11.79;73.49;101304.63;125437;1098;104203;-76
2022/11/09 11:02:45;;;;;;;47.63;26.30;;;;;;;11.81;73.36;101312.58;124720;1099;104284;-75
2022/11/09 11:05:40;;;;;;;48.00;27.83;;;;;;;11.80;73.23;101306.44;124648;1099;104184;-75
2022/11/09 11:08:43;;;;;;;53.07;27.57;;;;;;;11.84;73.12;101304.83;124742;1099;104786;-75
2022/11/09 11:11:38;;;;;;;44.20;25.70;;;;;;;11.86;72.80;101304.07;124731;1099;104181;-76
2022/11/09 11:14:32;;;;;;;46.30;23.77;;;;;;;11.92;73.20;101295.59;124691;1099;104156;-75
2022/11/09 11:17:26;;;;;;;43.60;25.60;;;;;;;11.96;73.64;101293.98;124693;1099;102569;-75
2022/11/09 11:20:32;;;;;;;45.57;24.83;;;;;;;12.02;73.17;101291.61;125145;1099;102825;-75
2022/11/09 11:23:35;;;;;;;41.87;23.17;;;;;;;12.04;73.50;101296.12;125526;1099;103059;-75
2022/11/09 11:26:38;;;;;;;42.33;21.50;;;;;;;12.10;73.30;101290.20;125468;1099;104207;-74
2022/11/09 11:29:40;;;;;;;35.83;20.63;;;;;;;12.16;73.07;101279.93;124669;1099;103683;-74
2022/11/09 11:32:30;;;;;;;35.40;20.03;;;;;;;12.19;73.06;101281.80;124666;1099;104232;-76
2022/11/09 11:35:31;;;;;;;35.87;19.80;;;;;;;12.18;72.76;101278.25;124753;1099;102857;-76
2022/11/09 11:38:31;;;;;;;33.17;19.13;;;;;;;12.17;72.65;101275.55;124566;1099;119003;-75
2022/11/09 11:41:52;;;;;;;37.57;19.63;;;;;;;12.21;72.86;101270.48;125482;1099;104169;-75